sensor_id;sensor_type;location;lat;lon;timestamp;P1;durP1;ratioP1;P2;durP2;ratioP2
24559;SDS011;12727;49.934;8.656;2022-12-18T00:01:37;64.88;;;20.88;;
24559;SDS011;12727;49.934;8.656;2022-12-18T00:04:04;875.75;;;67.85;;
24559;SDS011;12727;49.934;8.656;2022-12-18T00:06:31;1999.90;;;177.55;;
24559;SDS011;12727;49.934;8.656;2022-12-18T00:08:58;1999.90;;;153.48;;
24559;SDS011;12727;49.934;8.656;2022-12-18T00:11:27;1085.28;;;75.20;;
24559;SDS011;12727;49.934;8.656;2022-12-18T00:13:55;54.30;;;22.02;;
24559;SDS011;12727;49.934;8.656;2022-12-18T00:16:23;56.15;;;20.95;;
24559;SDS011;12727;49.934;8.656;2022-12-18T00:18:51;49.97;;;18.88;;
24559;SDS011;12727;49.934;8.656;2022-12-18T00:21:18;54.55;;;19.92;;
24559;SDS011;12727;49.934;8.656;2022-12-18T00:23:45;52.63;;;20.77;;
24559;SDS011;12727;49.934;8.656;2022-12-18T00:26:13;60.13;;;20.67;;
24559;SDS011;12727;49.934;8.656;2022-12-18T00:28:41;63.50;;;21.90;;
24559;SDS011;12727;49.934;8.656;2022-12-18T00:31:07;59.50;;;21.30;;
24559;SDS011;12727;49.934;8.656;2022-12-18T00:33:35;55.58;;;21.23;;
24559;SDS011;12727;49.934;8.656;2022-12-18T00:36:01;58.58;;;20.70;;
24559;SDS011;12727;49.934;8.656;2022-12-18T00:38:27;64.63;;;22.17;;
24559;SDS011;12727;49.934;8.656;2022-12-18T00:40:53;57.65;;;21.70;;
24559;SDS011;12727;49.934;8.656;2022-12-18T00:43:19;62.38;;;22.00;;
24559;SDS011;12727;49.934;8.656;2022-12-18T00:45:44;1869.07;;;128.55;;
24559;SDS011;12727;49.934;8.656;2022-12-18T00:48:10;1627.70;;;118.25;;
24559;SDS011;12727;49.934;8.656;2022-12-18T00:50:36;165.88;;;28.20;;
24559;SDS011;12727;49.934;8.656;2022-12-18T00:53:01;404.05;;;42.58;;
24559;SDS011;12727;49.934;8.656;2022-12-18T00:55:27;57.63;;;22.02;;
24559;SDS011;12727;49.934;8.656;2022-12-18T00:57:52;67.65;;;23.23;;
24559;SDS011;12727;49.934;8.656;2022-12-18T01:00:18;57.47;;;20.95;;
24559;SDS011;12727;49.934;8.656;2022-12-18T01:02:43;66.93;;;22.25;;
24559;SDS011;12727;49.934;8.656;2022-12-18T01:05:10;55.90;;;21.10;;
24559;SDS011;12727;49.934;8.656;2022-12-18T01:07:37;60.00;;;21.75;;
24559;SDS011;12727;49.934;8.656;2022-12-18T01:10:03;58.83;;;21.88;;
24559;SDS011;12727;49.934;8.656;2022-12-18T01:12:30;51.53;;;19.23;;
24559;SDS011;12727;49.934;8.656;2022-12-18T01:14:56;51.72;;;19.02;;
24559;SDS011;12727;49.934;8.656;2022-12-18T01:17:21;67.22;;;23.40;;
24559;SDS011;12727;49.934;8.656;2022-12-18T01:19:47;61.97;;;22.35;;
24559;SDS011;12727;49.934;8.656;2022-12-18T01:22:13;68.95;;;22.35;;
24559;SDS011;12727;49.934;8.656;2022-12-18T01:24:38;479.35;;;43.50;;
24559;SDS011;12727;49.934;8.656;2022-12-18T01:27:04;1568.20;;;106.88;;
24559;SDS011;12727;49.934;8.656;2022-12-18T01:29:29;55.33;;;21.02;;
24559;SDS011;12727;49.934;8.656;2022-12-18T01:31:55;58.33;;;19.90;;
24559;SDS011;12727;49.934;8.656;2022-12-18T01:34:21;58.17;;;21.23;;
24559;SDS011;12727;49.934;8.656;2022-12-18T01:36:47;61.00;;;23.15;;
24559;SDS011;12727;49.934;8.656;2022-12-18T01:39:13;59.30;;;20.23;;
24559;SDS011;12727;49.934;8.656;2022-12-18T01:41:39;52.15;;;18.85;;
24559;SDS011;12727;49.934;8.656;2022-12-18T01:47:18;51.45;;;19.08;;
24559;SDS011;12727;49.934;8.656;2022-12-18T01:49:45;49.92;;;20.25;;
24559;SDS011;12727;49.934;8.656;2022-12-18T01:52:11;69.00;;;22.23;;
24559;SDS011;12727;49.934;8.656;2022-12-18T01:54:36;62.58;;;22.30;;
24559;SDS011;12727;49.934;8.656;2022-12-18T01:57:02;59.95;;;22.55;;
24559;SDS011;12727;49.934;8.656;2022-12-18T01:59:28;67.38;;;24.95;;
24559;SDS011;12727;49.934;8.656;2022-12-18T02:01:57;59.67;;;21.48;;
24559;SDS011;12727;49.934;8.656;2022-12-18T02:04:26;66.30;;;22.70;;
24559;SDS011;12727;49.934;8.656;2022-12-18T02:07:01;69.25;;;23.08;;
24559;SDS011;12727;49.934;8.656;2022-12-18T02:09:48;63.13;;;23.20;;
24559;SDS011;12727;49.934;8.656;2022-12-18T02:12:21;65.30;;;23.88;;
24559;SDS011;12727;49.934;8.656;2022-12-18T02:14:54;57.72;;;22.27;;
24559;SDS011;12727;49.934;8.656;2022-12-18T02:17:50;63.22;;;22.50;;
24559;SDS011;12727;49.934;8.656;2022-12-18T02:28:56;56.28;;;20.80;;
24559;SDS011;12727;49.934;8.656;2022-12-18T02:31:35;56.95;;;20.70;;
24559;SDS011;12727;49.934;8.656;2022-12-18T02:34:05;59.25;;;21.58;;
24559;SDS011;12727;49.934;8.656;2022-12-18T02:36:33;50.58;;;20.15;;
24559;SDS011;12727;49.934;8.656;2022-12-18T02:39:03;57.65;;;22.15;;
24559;SDS011;12727;49.934;8.656;2022-12-18T02:41:30;62.08;;;22.48;;
24559;SDS011;12727;49.934;8.656;2022-12-18T02:43:57;57.03;;;22.13;;
24559;SDS011;12727;49.934;8.656;2022-12-18T02:48:55;55.03;;;21.63;;
24559;SDS011;12727;49.934;8.656;2022-12-18T02:51:47;60.63;;;23.05;;
24559;SDS011;12727;49.934;8.656;2022-12-18T02:54:24;54.85;;;19.83;;
24559;SDS011;12727;49.934;8.656;2022-12-18T02:56:56;52.97;;;20.73;;
24559;SDS011;12727;49.934;8.656;2022-12-18T02:59:33;65.07;;;24.63;;
24559;SDS011;12727;49.934;8.656;2022-12-18T03:02:17;59.35;;;22.15;;
24559;SDS011;12727;49.934;8.656;2022-12-18T03:05:02;57.92;;;23.00;;
24559;SDS011;12727;49.934;8.656;2022-12-18T03:07:37;61.58;;;22.55;;
24559;SDS011;12727;49.934;8.656;2022-12-18T03:10:29;58.40;;;21.75;;
24559;SDS011;12727;49.934;8.656;2022-12-18T03:13:02;54.70;;;22.38;;
24559;SDS011;12727;49.934;8.656;2022-12-18T03:15:31;56.78;;;21.50;;
24559;SDS011;12727;49.934;8.656;2022-12-18T03:18:11;47.85;;;18.13;;
24559;SDS011;12727;49.934;8.656;2022-12-18T03:20:44;56.92;;;21.70;;
24559;SDS011;12727;49.934;8.656;2022-12-18T03:23:11;60.78;;;21.20;;
24559;SDS011;12727;49.934;8.656;2022-12-18T03:25:42;54.33;;;22.20;;
24559;SDS011;12727;49.934;8.656;2022-12-18T03:28:12;56.28;;;21.92;;
24559;SDS011;12727;49.934;8.656;2022-12-18T03:30:41;51.33;;;20.10;;
24559;SDS011;12727;49.934;8.656;2022-12-18T03:33:10;60.75;;;21.90;;
24559;SDS011;12727;49.934;8.656;2022-12-18T03:35:43;59.80;;;22.08;;
24559;SDS011;12727;49.934;8.656;2022-12-18T03:38:09;61.30;;;22.23;;
24559;SDS011;12727;49.934;8.656;2022-12-18T03:43:30;54.70;;;20.90;;
24559;SDS011;12727;49.934;8.656;2022-12-18T03:46:08;64.97;;;25.05;;
24559;SDS011;12727;49.934;8.656;2022-12-18T03:48:43;53.67;;;21.70;;
24559;SDS011;12727;49.934;8.656;2022-12-18T03:51:27;56.35;;;22.38;;
24559;SDS011;12727;49.934;8.656;2022-12-18T03:54:06;58.38;;;22.10;;
24559;SDS011;12727;49.934;8.656;2022-12-18T03:56:36;56.85;;;21.55;;
24559;SDS011;12727;49.934;8.656;2022-12-18T03:59:05;58.60;;;22.45;;
24559;SDS011;12727;49.934;8.656;2022-12-18T04:01:33;60.13;;;22.63;;
24559;SDS011;12727;49.934;8.656;2022-12-18T04:04:03;57.22;;;21.73;;
24559;SDS011;12727;49.934;8.656;2022-12-18T04:06:29;47.40;;;19.50;;
24559;SDS011;12727;49.934;8.656;2022-12-18T04:08:57;60.67;;;22.52;;
24559;SDS011;12727;49.934;8.656;2022-12-18T04:11:23;48.25;;;19.95;;
24559;SDS011;12727;49.934;8.656;2022-12-18T04:13:49;443.10;;;43.83;;
24559;SDS011;12727;49.934;8.656;2022-12-18T04:16:14;593.30;;;48.95;;
24559;SDS011;12727;49.934;8.656;2022-12-18T04:18:40;54.65;;;21.08;;
24559;SDS011;12727;49.934;8.656;2022-12-18T04:21:06;55.50;;;21.63;;
24559;SDS011;12727;49.934;8.656;2022-12-18T04:23:31;53.22;;;20.40;;
24559;SDS011;12727;49.934;8.656;2022-12-18T04:25:57;56.08;;;22.23;;
24559;SDS011;12727;49.934;8.656;2022-12-18T04:28:22;56.85;;;22.65;;
24559;SDS011;12727;49.934;8.656;2022-12-18T04:30:48;55.95;;;22.30;;
24559;SDS011;12727;49.934;8.656;2022-12-18T04:33:14;58.67;;;24.08;;
24559;SDS011;12727;49.934;8.656;2022-12-18T04:35:39;58.80;;;22.50;;
24559;SDS011;12727;49.934;8.656;2022-12-18T04:38:06;62.35;;;23.67;;
24559;SDS011;12727;49.934;8.656;2022-12-18T04:40:33;63.30;;;23.88;;
24559;SDS011;12727;49.934;8.656;2022-12-18T04:42:59;62.33;;;24.10;;
24559;SDS011;12727;49.934;8.656;2022-12-18T04:45:24;61.67;;;22.83;;
24559;SDS011;12727;49.934;8.656;2022-12-18T04:47:50;60.58;;;23.05;;
24559;SDS011;12727;49.934;8.656;2022-12-18T04:50:16;58.75;;;22.27;;
24559;SDS011;12727;49.934;8.656;2022-12-18T04:52:41;55.30;;;23.58;;
24559;SDS011;12727;49.934;8.656;2022-12-18T04:55:07;62.05;;;22.45;;
24559;SDS011;12727;49.934;8.656;2022-12-18T04:57:32;67.93;;;23.35;;
24559;SDS011;12727;49.934;8.656;2022-12-18T04:59:58;60.40;;;22.83;;
24559;SDS011;12727;49.934;8.656;2022-12-18T05:02:24;58.55;;;23.48;;
24559;SDS011;12727;49.934;8.656;2022-12-18T05:04:49;61.67;;;24.08;;
24559;SDS011;12727;49.934;8.656;2022-12-18T05:07:15;72.25;;;24.88;;
24559;SDS011;12727;49.934;8.656;2022-12-18T05:09:40;63.15;;;24.15;;
24559;SDS011;12727;49.934;8.656;2022-12-18T05:12:06;62.47;;;25.35;;
24559;SDS011;12727;49.934;8.656;2022-12-18T05:14:31;59.45;;;25.38;;
24559;SDS011;12727;49.934;8.656;2022-12-18T05:16:57;59.15;;;24.30;;
24559;SDS011;12727;49.934;8.656;2022-12-18T05:19:22;63.60;;;24.77;;
24559;SDS011;12727;49.934;8.656;2022-12-18T05:21:48;63.30;;;25.35;;
24559;SDS011;12727;49.934;8.656;2022-12-18T05:24:13;64.63;;;23.95;;
24559;SDS011;12727;49.934;8.656;2022-12-18T05:26:39;67.15;;;25.10;;
24559;SDS011;12727;49.934;8.656;2022-12-18T05:29:05;56.30;;;23.35;;
24559;SDS011;12727;49.934;8.656;2022-12-18T05:31:30;54.22;;;23.13;;
24559;SDS011;12727;49.934;8.656;2022-12-18T05:33:56;55.10;;;21.42;;
24559;SDS011;12727;49.934;8.656;2022-12-18T05:36:22;52.90;;;21.02;;
24559;SDS011;12727;49.934;8.656;2022-12-18T05:38:48;59.75;;;22.55;;
24559;SDS011;12727;49.934;8.656;2022-12-18T05:41:14;58.60;;;22.88;;
24559;SDS011;12727;49.934;8.656;2022-12-18T05:43:40;52.03;;;23.15;;
24559;SDS011;12727;49.934;8.656;2022-12-18T05:46:11;55.72;;;22.52;;
24559;SDS011;12727;49.934;8.656;2022-12-18T05:48:38;61.60;;;23.83;;
24559;SDS011;12727;49.934;8.656;2022-12-18T05:51:08;56.95;;;21.70;;
24559;SDS011;12727;49.934;8.656;2022-12-18T05:53:39;60.90;;;23.50;;
24559;SDS011;12727;49.934;8.656;2022-12-18T05:56:06;61.47;;;23.95;;
24559;SDS011;12727;49.934;8.656;2022-12-18T05:58:35;54.35;;;22.25;;
24559;SDS011;12727;49.934;8.656;2022-12-18T06:01:09;58.78;;;22.58;;
24559;SDS011;12727;49.934;8.656;2022-12-18T06:03:36;55.72;;;23.63;;
24559;SDS011;12727;49.934;8.656;2022-12-18T06:06:02;59.33;;;22.83;;
24559;SDS011;12727;49.934;8.656;2022-12-18T06:08:28;58.25;;;22.75;;
24559;SDS011;12727;49.934;8.656;2022-12-18T06:10:54;58.92;;;23.20;;
24559;SDS011;12727;49.934;8.656;2022-12-18T06:13:19;55.08;;;22.98;;
24559;SDS011;12727;49.934;8.656;2022-12-18T06:15:45;53.85;;;22.20;;
24559;SDS011;12727;49.934;8.656;2022-12-18T06:18:11;59.97;;;24.00;;
24559;SDS011;12727;49.934;8.656;2022-12-18T06:20:37;60.45;;;23.55;;
24559;SDS011;12727;49.934;8.656;2022-12-18T06:23:04;59.47;;;22.95;;
24559;SDS011;12727;49.934;8.656;2022-12-18T06:25:31;58.90;;;24.65;;
24559;SDS011;12727;49.934;8.656;2022-12-18T06:27:57;67.43;;;23.80;;
24559;SDS011;12727;49.934;8.656;2022-12-18T06:30:22;68.97;;;25.67;;
24559;SDS011;12727;49.934;8.656;2022-12-18T06:32:48;58.40;;;23.33;;
24559;SDS011;12727;49.934;8.656;2022-12-18T06:35:14;58.22;;;24.00;;
24559;SDS011;12727;49.934;8.656;2022-12-18T06:37:40;68.38;;;26.17;;
24559;SDS011;12727;49.934;8.656;2022-12-18T06:40:06;55.83;;;24.23;;
24559;SDS011;12727;49.934;8.656;2022-12-18T06:42:32;55.85;;;23.23;;
24559;SDS011;12727;49.934;8.656;2022-12-18T06:44:57;56.47;;;22.90;;
24559;SDS011;12727;49.934;8.656;2022-12-18T06:47:23;59.03;;;23.05;;
24559;SDS011;12727;49.934;8.656;2022-12-18T06:49:49;65.95;;;25.55;;
24559;SDS011;12727;49.934;8.656;2022-12-18T06:52:14;57.63;;;23.13;;
24559;SDS011;12727;49.934;8.656;2022-12-18T06:54:40;59.33;;;24.48;;
24559;SDS011;12727;49.934;8.656;2022-12-18T06:57:05;59.47;;;23.95;;
24559;SDS011;12727;49.934;8.656;2022-12-18T06:59:31;62.75;;;24.88;;
24559;SDS011;12727;49.934;8.656;2022-12-18T07:01:56;57.60;;;23.25;;
24559;SDS011;12727;49.934;8.656;2022-12-18T07:04:26;61.85;;;24.70;;
24559;SDS011;12727;49.934;8.656;2022-12-18T07:06:53;55.13;;;24.05;;
24559;SDS011;12727;49.934;8.656;2022-12-18T07:09:18;63.65;;;25.40;;
24559;SDS011;12727;49.934;8.656;2022-12-18T07:11:44;60.67;;;23.77;;
24559;SDS011;12727;49.934;8.656;2022-12-18T07:14:09;64.78;;;26.63;;
24559;SDS011;12727;49.934;8.656;2022-12-18T07:16:35;58.65;;;24.75;;
24559;SDS011;12727;49.934;8.656;2022-12-18T07:19:00;62.72;;;25.13;;
24559;SDS011;12727;49.934;8.656;2022-12-18T07:21:26;62.58;;;26.25;;
24559;SDS011;12727;49.934;8.656;2022-12-18T07:23:52;57.67;;;24.77;;
24559;SDS011;12727;49.934;8.656;2022-12-18T07:26:18;60.90;;;25.42;;
24559;SDS011;12727;49.934;8.656;2022-12-18T07:28:45;60.03;;;25.70;;
24559;SDS011;12727;49.934;8.656;2022-12-18T07:31:18;64.07;;;26.10;;
24559;SDS011;12727;49.934;8.656;2022-12-18T07:33:45;56.65;;;24.15;;
24559;SDS011;12727;49.934;8.656;2022-12-18T07:36:11;56.95;;;24.55;;
24559;SDS011;12727;49.934;8.656;2022-12-18T07:38:38;62.10;;;25.45;;
24559;SDS011;12727;49.934;8.656;2022-12-18T07:41:05;47.50;;;20.92;;
24559;SDS011;12727;49.934;8.656;2022-12-18T07:43:32;62.58;;;25.13;;
24559;SDS011;12727;49.934;8.656;2022-12-18T07:45:58;50.30;;;21.75;;
24559;SDS011;12727;49.934;8.656;2022-12-18T07:48:24;55.45;;;22.27;;
24559;SDS011;12727;49.934;8.656;2022-12-18T07:50:50;54.78;;;24.10;;
24559;SDS011;12727;49.934;8.656;2022-12-18T07:53:16;55.95;;;22.30;;
24559;SDS011;12727;49.934;8.656;2022-12-18T07:55:42;59.45;;;23.75;;
24559;SDS011;12727;49.934;8.656;2022-12-18T07:58:07;57.75;;;25.05;;
24559;SDS011;12727;49.934;8.656;2022-12-18T08:00:34;59.83;;;26.17;;
24559;SDS011;12727;49.934;8.656;2022-12-18T08:02:59;70.32;;;29.38;;
24559;SDS011;12727;49.934;8.656;2022-12-18T08:05:25;57.58;;;25.08;;
24559;SDS011;12727;49.934;8.656;2022-12-18T08:07:51;60.05;;;27.38;;
24559;SDS011;12727;49.934;8.656;2022-12-18T08:10:17;59.50;;;25.67;;
24559;SDS011;12727;49.934;8.656;2022-12-18T08:12:43;53.47;;;25.25;;
24559;SDS011;12727;49.934;8.656;2022-12-18T08:15:09;57.88;;;24.30;;
24559;SDS011;12727;49.934;8.656;2022-12-18T08:17:35;57.47;;;26.13;;
24559;SDS011;12727;49.934;8.656;2022-12-18T08:20:00;59.10;;;25.50;;
24559;SDS011;12727;49.934;8.656;2022-12-18T08:22:26;59.47;;;25.52;;
24559;SDS011;12727;49.934;8.656;2022-12-18T08:24:51;61.38;;;25.27;;
24559;SDS011;12727;49.934;8.656;2022-12-18T08:27:17;64.00;;;27.98;;
24559;SDS011;12727;49.934;8.656;2022-12-18T08:29:43;64.72;;;28.10;;
24559;SDS011;12727;49.934;8.656;2022-12-18T08:32:09;61.78;;;27.75;;
24559;SDS011;12727;49.934;8.656;2022-12-18T08:34:35;57.17;;;26.42;;
24559;SDS011;12727;49.934;8.656;2022-12-18T08:37:00;56.55;;;25.67;;
24559;SDS011;12727;49.934;8.656;2022-12-18T08:39:26;51.05;;;23.58;;
24559;SDS011;12727;49.934;8.656;2022-12-18T08:41:52;53.10;;;26.02;;
24559;SDS011;12727;49.934;8.656;2022-12-18T08:44:36;54.78;;;27.52;;
24559;SDS011;12727;49.934;8.656;2022-12-18T08:47:05;51.88;;;26.13;;
24559;SDS011;12727;49.934;8.656;2022-12-18T08:49:31;53.67;;;25.75;;
24559;SDS011;12727;49.934;8.656;2022-12-18T08:51:58;48.35;;;23.95;;
24559;SDS011;12727;49.934;8.656;2022-12-18T08:54:23;43.58;;;23.58;;
24559;SDS011;12727;49.934;8.656;2022-12-18T08:56:50;43.47;;;23.27;;
24559;SDS011;12727;49.934;8.656;2022-12-18T08:59:16;46.75;;;24.27;;
24559;SDS011;12727;49.934;8.656;2022-12-18T09:01:42;44.70;;;24.33;;
24559;SDS011;12727;49.934;8.656;2022-12-18T09:04:11;47.00;;;26.73;;
24559;SDS011;12727;49.934;8.656;2022-12-18T09:06:38;51.92;;;27.20;;
24559;SDS011;12727;49.934;8.656;2022-12-18T09:09:05;51.53;;;28.55;;
24559;SDS011;12727;49.934;8.656;2022-12-18T09:11:33;51.25;;;29.13;;
24559;SDS011;12727;49.934;8.656;2022-12-18T09:14:02;48.75;;;27.77;;
24559;SDS011;12727;49.934;8.656;2022-12-18T09:16:29;47.30;;;26.58;;
24559;SDS011;12727;49.934;8.656;2022-12-18T09:18:55;44.63;;;25.58;;
24559;SDS011;12727;49.934;8.656;2022-12-18T09:21:29;38.65;;;22.20;;
24559;SDS011;12727;49.934;8.656;2022-12-18T09:26:38;43.20;;;24.23;;
24559;SDS011;12727;49.934;8.656;2022-12-18T09:29:04;41.53;;;22.95;;
24559;SDS011;12727;49.934;8.656;2022-12-18T09:31:32;43.95;;;24.60;;
24559;SDS011;12727;49.934;8.656;2022-12-18T09:33:58;38.45;;;22.90;;
24559;SDS011;12727;49.934;8.656;2022-12-18T09:36:23;39.60;;;22.20;;
24559;SDS011;12727;49.934;8.656;2022-12-18T09:38:50;39.75;;;23.73;;
24559;SDS011;12727;49.934;8.656;2022-12-18T09:46:45;41.60;;;24.95;;
24559;SDS011;12727;49.934;8.656;2022-12-18T09:49:32;42.25;;;26.55;;
24559;SDS011;12727;49.934;8.656;2022-12-18T09:52:05;45.00;;;25.90;;
24559;SDS011;12727;49.934;8.656;2022-12-18T09:54:44;43.47;;;26.92;;
24559;SDS011;12727;49.934;8.656;2022-12-18T09:57:14;46.13;;;25.35;;
24559;SDS011;12727;49.934;8.656;2022-12-18T09:59:43;44.10;;;26.50;;
24559;SDS011;12727;49.934;8.656;2022-12-18T10:02:15;41.88;;;24.23;;
24559;SDS011;12727;49.934;8.656;2022-12-18T10:04:49;47.25;;;26.67;;
24559;SDS011;12727;49.934;8.656;2022-12-18T10:07:45;48.22;;;26.67;;
24559;SDS011;12727;49.934;8.656;2022-12-18T10:10:37;47.60;;;26.00;;
24559;SDS011;12727;49.934;8.656;2022-12-18T10:15:39;49.75;;;25.50;;
24559;SDS011;12727;49.934;8.656;2022-12-18T10:18:22;49.83;;;25.58;;
24559;SDS011;12727;49.934;8.656;2022-12-18T10:21:13;45.60;;;24.55;;
24559;SDS011;12727;49.934;8.656;2022-12-18T10:26:38;47.58;;;24.23;;
24559;SDS011;12727;49.934;8.656;2022-12-18T10:29:12;42.22;;;21.80;;
24559;SDS011;12727;49.934;8.656;2022-12-18T10:31:39;47.97;;;24.23;;
24559;SDS011;12727;49.934;8.656;2022-12-18T10:34:11;47.13;;;24.95;;
24559;SDS011;12727;49.934;8.656;2022-12-18T10:36:40;54.85;;;26.20;;
24559;SDS011;12727;49.934;8.656;2022-12-18T10:39:16;52.53;;;23.23;;
24559;SDS011;12727;49.934;8.656;2022-12-18T10:41:59;55.17;;;28.35;;
24559;SDS011;12727;49.934;8.656;2022-12-18T10:44:35;49.87;;;23.07;;
24559;SDS011;12727;49.934;8.656;2022-12-18T10:47:04;58.88;;;25.88;;
24559;SDS011;12727;49.934;8.656;2022-12-18T10:49:36;48.03;;;23.95;;
24559;SDS011;12727;49.934;8.656;2022-12-18T10:52:07;51.53;;;22.45;;
24559;SDS011;12727;49.934;8.656;2022-12-18T10:54:46;56.92;;;24.75;;
24559;SDS011;12727;49.934;8.656;2022-12-18T10:57:34;63.40;;;29.42;;
24559;SDS011;12727;49.934;8.656;2022-12-18T11:02:54;60.22;;;23.92;;
24559;SDS011;12727;49.934;8.656;2022-12-18T11:05:30;60.13;;;26.50;;
24559;SDS011;12727;49.934;8.656;2022-12-18T11:07:59;48.25;;;20.63;;
24559;SDS011;12727;49.934;8.656;2022-12-18T11:10:35;58.90;;;24.83;;
24559;SDS011;12727;49.934;8.656;2022-12-18T11:13:15;63.67;;;27.50;;
24559;SDS011;12727;49.934;8.656;2022-12-18T11:15:43;59.33;;;26.95;;
24559;SDS011;12727;49.934;8.656;2022-12-18T11:20:49;52.22;;;21.35;;
24559;SDS011;12727;49.934;8.656;2022-12-18T11:23:20;51.55;;;20.15;;
24559;SDS011;12727;49.934;8.656;2022-12-18T11:25:52;56.17;;;24.70;;
24559;SDS011;12727;49.934;8.656;2022-12-18T11:31:34;59.70;;;28.05;;
24559;SDS011;12727;49.934;8.656;2022-12-18T11:34:33;57.90;;;26.33;;
24559;SDS011;12727;49.934;8.656;2022-12-18T11:36:53;60.97;;;28.65;;
24559;SDS011;12727;49.934;8.656;2022-12-18T11:50:10;58.75;;;25.15;;
24559;SDS011;12727;49.934;8.656;2022-12-18T11:52:40;59.30;;;24.00;;
24559;SDS011;12727;49.934;8.656;2022-12-18T11:55:19;57.20;;;25.92;;
24559;SDS011;12727;49.934;8.656;2022-12-18T12:00:28;60.22;;;22.67;;
24559;SDS011;12727;49.934;8.656;2022-12-18T12:11:23;60.45;;;22.85;;
24559;SDS011;12727;49.934;8.656;2022-12-18T12:16:58;50.17;;;19.08;;
24559;SDS011;12727;49.934;8.656;2022-12-18T12:30:43;50.50;;;20.73;;
24559;SDS011;12727;49.934;8.656;2022-12-18T12:39:16;55.42;;;24.25;;
24559;SDS011;12727;49.934;8.656;2022-12-18T12:41:46;61.40;;;22.20;;
24559;SDS011;12727;49.934;8.656;2022-12-18T12:44:31;38.13;;;14.52;;
24559;SDS011;12727;49.934;8.656;2022-12-18T12:47:07;61.47;;;26.23;;
24559;SDS011;12727;49.934;8.656;2022-12-18T12:49:47;57.55;;;22.50;;
24559;SDS011;12727;49.934;8.656;2022-12-18T12:52:17;55.97;;;21.05;;
24559;SDS011;12727;49.934;8.656;2022-12-18T12:54:51;62.10;;;24.42;;
24559;SDS011;12727;49.934;8.656;2022-12-18T13:02:19;59.45;;;23.65;;
24559;SDS011;12727;49.934;8.656;2022-12-18T13:07:51;55.95;;;20.73;;
24559;SDS011;12727;49.934;8.656;2022-12-18T13:10:36;63.50;;;26.03;;
24559;SDS011;12727;49.934;8.656;2022-12-18T13:13:07;62.72;;;22.10;;
24559;SDS011;12727;49.934;8.656;2022-12-18T13:15:48;50.10;;;22.60;;
24559;SDS011;12727;49.934;8.656;2022-12-18T13:18:28;61.50;;;24.67;;
24559;SDS011;12727;49.934;8.656;2022-12-18T13:25:45;54.35;;;21.00;;
24559;SDS011;12727;49.934;8.656;2022-12-18T13:28:14;57.05;;;22.38;;
24559;SDS011;12727;49.934;8.656;2022-12-18T13:30:47;52.22;;;20.33;;
24559;SDS011;12727;49.934;8.656;2022-12-18T13:46:41;40.70;;;15.77;;
24559;SDS011;12727;49.934;8.656;2022-12-18T13:48:48;58.08;;;23.30;;
24559;SDS011;12727;49.934;8.656;2022-12-18T13:51:20;52.85;;;21.83;;
24559;SDS011;12727;49.934;8.656;2022-12-18T13:54:02;53.60;;;19.27;;
24559;SDS011;12727;49.934;8.656;2022-12-18T13:56:42;62.33;;;23.25;;
24559;SDS011;12727;49.934;8.656;2022-12-18T14:01:45;58.60;;;23.50;;
24559;SDS011;12727;49.934;8.656;2022-12-18T14:04:21;49.00;;;18.63;;
24559;SDS011;12727;49.934;8.656;2022-12-18T14:06:47;56.25;;;25.25;;
24559;SDS011;12727;49.934;8.656;2022-12-18T14:09:17;57.95;;;21.75;;
24559;SDS011;12727;49.934;8.656;2022-12-18T14:11:47;56.83;;;21.50;;
24559;SDS011;12727;49.934;8.656;2022-12-18T14:14:15;60.17;;;21.25;;
24559;SDS011;12727;49.934;8.656;2022-12-18T14:16:43;55.55;;;21.23;;
24559;SDS011;12727;49.934;8.656;2022-12-18T14:19:14;62.17;;;24.88;;
24559;SDS011;12727;49.934;8.656;2022-12-18T14:21:46;54.05;;;21.45;;
24559;SDS011;12727;49.934;8.656;2022-12-18T14:26:39;51.72;;;20.48;;
24559;SDS011;12727;49.934;8.656;2022-12-18T14:29:18;59.10;;;22.20;;
24559;SDS011;12727;49.934;8.656;2022-12-18T14:34:33;60.00;;;21.52;;
24559;SDS011;12727;49.934;8.656;2022-12-18T14:36:58;62.28;;;23.63;;
24559;SDS011;12727;49.934;8.656;2022-12-18T14:39:24;60.70;;;23.42;;
24559;SDS011;12727;49.934;8.656;2022-12-18T14:41:50;62.67;;;24.95;;
24559;SDS011;12727;49.934;8.656;2022-12-18T14:44:16;57.65;;;21.23;;
24559;SDS011;12727;49.934;8.656;2022-12-18T14:46:43;51.53;;;20.27;;
24559;SDS011;12727;49.934;8.656;2022-12-18T14:51:56;58.28;;;21.92;;
24559;SDS011;12727;49.934;8.656;2022-12-18T14:54:30;54.88;;;20.50;;
24559;SDS011;12727;49.934;8.656;2022-12-18T14:59:49;55.22;;;21.90;;
24559;SDS011;12727;49.934;8.656;2022-12-18T15:02:22;52.90;;;20.17;;
24559;SDS011;12727;49.934;8.656;2022-12-18T15:05:00;56.80;;;20.88;;
24559;SDS011;12727;49.934;8.656;2022-12-18T15:07:34;56.65;;;21.73;;
24559;SDS011;12727;49.934;8.656;2022-12-18T15:12:44;56.08;;;19.85;;
24559;SDS011;12727;49.934;8.656;2022-12-18T15:18:00;52.05;;;18.98;;
24559;SDS011;12727;49.934;8.656;2022-12-18T15:23:14;50.97;;;19.13;;
24559;SDS011;12727;49.934;8.656;2022-12-18T15:25:45;50.30;;;19.38;;
24559;SDS011;12727;49.934;8.656;2022-12-18T15:28:34;54.83;;;20.35;;
24559;SDS011;12727;49.934;8.656;2022-12-18T15:31:03;56.10;;;20.52;;
24559;SDS011;12727;49.934;8.656;2022-12-18T15:33:39;50.83;;;19.75;;
24559;SDS011;12727;49.934;8.656;2022-12-18T15:36:08;59.00;;;22.38;;
24559;SDS011;12727;49.934;8.656;2022-12-18T15:38:39;56.08;;;20.08;;
24559;SDS011;12727;49.934;8.656;2022-12-18T15:41:05;52.67;;;20.40;;
24559;SDS011;12727;49.934;8.656;2022-12-18T15:43:41;56.60;;;21.42;;
24559;SDS011;12727;49.934;8.656;2022-12-18T15:46:12;61.47;;;22.00;;
24559;SDS011;12727;49.934;8.656;2022-12-18T15:48:49;58.17;;;21.85;;
24559;SDS011;12727;49.934;8.656;2022-12-18T15:51:32;58.47;;;22.48;;
24559;SDS011;12727;49.934;8.656;2022-12-18T15:54:01;58.72;;;21.75;;
24559;SDS011;12727;49.934;8.656;2022-12-18T15:56:28;51.47;;;20.55;;
24559;SDS011;12727;49.934;8.656;2022-12-18T15:59:13;55.10;;;20.75;;
24559;SDS011;12727;49.934;8.656;2022-12-18T16:01:44;52.45;;;19.80;;
24559;SDS011;12727;49.934;8.656;2022-12-18T16:04:12;51.15;;;19.92;;
24559;SDS011;12727;49.934;8.656;2022-12-18T16:06:40;58.88;;;24.00;;
24559;SDS011;12727;49.934;8.656;2022-12-18T16:09:06;58.92;;;24.30;;
24559;SDS011;12727;49.934;8.656;2022-12-18T16:11:32;53.70;;;21.75;;
24559;SDS011;12727;49.934;8.656;2022-12-18T16:14:27;56.38;;;20.67;;
24559;SDS011;12727;49.934;8.656;2022-12-18T16:16:56;56.13;;;21.88;;
24559;SDS011;12727;49.934;8.656;2022-12-18T16:19:23;51.83;;;20.23;;
24559;SDS011;12727;49.934;8.656;2022-12-18T16:21:50;52.30;;;21.15;;
24559;SDS011;12727;49.934;8.656;2022-12-18T16:24:17;57.72;;;23.52;;
24559;SDS011;12727;49.934;8.656;2022-12-18T16:26:44;57.42;;;22.33;;
24559;SDS011;12727;49.934;8.656;2022-12-18T16:29:10;51.05;;;20.58;;
24559;SDS011;12727;49.934;8.656;2022-12-18T16:31:36;61.30;;;22.88;;
24559;SDS011;12727;49.934;8.656;2022-12-18T16:36:48;63.45;;;21.92;;
24559;SDS011;12727;49.934;8.656;2022-12-18T16:39:14;69.80;;;24.13;;
24559;SDS011;12727;49.934;8.656;2022-12-18T16:41:39;76.53;;;28.63;;
24559;SDS011;12727;49.934;8.656;2022-12-18T16:44:05;53.22;;;20.98;;
24559;SDS011;12727;49.934;8.656;2022-12-18T16:46:30;49.92;;;21.80;;